TimeEST,TemperatureF,Dew PointF,Humidity,Sea Level PressureIn,VisibilityMPH,Wind Direction,Wind SpeedMPH,Gust SpeedMPH,PrecipitationIn,Events,Conditions,WindDirDegrees,DateUTC
12:51 AM,35.1,30.9,85,30.41,10.0,WSW,5.8,-,N/A,,Scattered Clouds,240,2013-01-09 05:51:00
1:51 AM,35.1,30.9,85,30.39,10.0,SW,3.5,-,N/A,,Scattered Clouds,230,2013-01-09 06:51:00
2:51 AM,35.1,32.0,89,30.39,10.0,SW,4.6,-,N/A,,Scattered Clouds,220,2013-01-09 07:51:00
3:51 AM,35.1,32.0,89,30.38,9.0,Calm,Calm,-,N/A,,Mostly Cloudy,0,2013-01-09 08:51:00
4:51 AM,35.1,33.1,92,30.38,9.0,Calm,Calm,-,N/A,,Overcast,0,2013-01-09 09:51:00
5:51 AM,37.0,32.0,82,30.37,10.0,Calm,Calm,-,N/A,,Scattered Clouds,0,2013-01-09 10:51:00
6:51 AM,37.9,32.0,79,30.38,9.0,Calm,Calm,-,N/A,,Mostly Cloudy,0,2013-01-09 11:51:00
7:51 AM,34.0,30.9,89,30.39,8.0,Variable,3.5,-,N/A,,Mostly Cloudy,0,2013-01-09 12:51:00
8:51 AM,39.9,37.0,89,30.40,7.0,Calm,Calm,-,N/A,,Mostly Cloudy,0,2013-01-09 13:51:00
9:51 AM,45.0,37.0,74,30.39,8.0,SSW,4.6,-,N/A,,Mostly Cloudy,210,2013-01-09 14:51:00
10:51 AM,46.9,35.1,63,30.34,10.0,SSE,9.2,-,N/A,,Mostly Cloudy,160,2013-01-09 15:51:00
11:51 AM,46.0,37.0,71,30.31,10.0,SSW,6.9,-,N/A,,Mostly Cloudy,200,2013-01-09 16:51:00
12:51 PM,46.0,34.0,63,30.26,10.0,South,9.2,-,N/A,,Overcast,190,2013-01-09 17:51:00
1:51 PM,46.9,35.1,63,30.27,10.0,SSW,6.9,-,N/A,,Overcast,210,2013-01-09 18:51:00
2:51 PM,46.4,34.2,62,30.20,10.0,South,9.2,-,N/A,,Overcast,170,2013-01-09 19:51:00
3:51 PM,45.3,36.3,71,30.17,10.0,South,8.1,-,N/A,,Overcast,190,2013-01-09 20:51:00
4:51 PM,46.0,39.0,76,30.16,10.0,SSW,6.9,-,N/A,,Mostly Cloudy,210,2013-01-09 21:51:00
5:51 PM,48.0,39.0,71,30.19,10.0,WSW,8.1,-,N/A,,Overcast,250,2013-01-09 22:51:00
6:51 PM,48.0,37.0,66,30.19,10.0,WSW,17.3,-,N/A,,Scattered Clouds,250,2013-01-09 23:51:00
7:51 PM,48.0,37.0,66,30.21,10.0,WSW,16.1,-,N/A,,Partly Cloudy,250,2013-01-10 00:51:00
8:51 PM,46.9,37.0,68,30.20,10.0,WSW,16.1,-,N/A,,Clear,250,2013-01-10 01:51:00
9:51 PM,46.0,36.0,68,30.20,10.0,West,16.1,-,N/A,,Clear,260,2013-01-10 02:51:00
10:51 PM,46.9,33.1,59,30.23,10.0,West,16.1,-,N/A,,Clear,260,2013-01-10 03:51:00
11:51 PM,46.9,30.9,54,30.24,10.0,West,18.4,-,N/A,,Clear,260,2013-01-10 04:51:00